sensor_id;sensor_type;location;lat;lon;timestamp;P1;durP1;ratioP1;P2;durP2;ratioP2
59062;SDS011;44851;45.648;9.004;2022-10-17T00:02:07;33.37;;;22.80;;
59062;SDS011;44851;45.648;9.004;2022-10-17T00:04:32;33.43;;;23.03;;
59062;SDS011;44851;45.648;9.004;2022-10-17T00:06:57;34.70;;;23.20;;
59062;SDS011;44851;45.648;9.004;2022-10-17T00:09:23;32.83;;;22.43;;
59062;SDS011;44851;45.648;9.004;2022-10-17T00:11:48;33.57;;;22.57;;
59062;SDS011;44851;45.648;9.004;2022-10-17T00:14:13;29.27;;;21.77;;
59062;SDS011;44851;45.648;9.004;2022-10-17T00:16:39;39.67;;;21.67;;
59062;SDS011;44851;45.648;9.004;2022-10-17T00:19:05;33.60;;;22.93;;
59062;SDS011;44851;45.648;9.004;2022-10-17T00:21:31;30.33;;;21.23;;
59062;SDS011;44851;45.648;9.004;2022-10-17T00:23:57;32.53;;;22.70;;
59062;SDS011;44851;45.648;9.004;2022-10-17T00:26:24;34.93;;;21.60;;
59062;SDS011;44851;45.648;9.004;2022-10-17T00:28:50;31.17;;;22.53;;
59062;SDS011;44851;45.648;9.004;2022-10-17T00:31:17;34.23;;;24.20;;
59062;SDS011;44851;45.648;9.004;2022-10-17T00:33:44;31.93;;;22.37;;
59062;SDS011;44851;45.648;9.004;2022-10-17T00:36:10;32.63;;;21.63;;
59062;SDS011;44851;45.648;9.004;2022-10-17T00:38:44;36.67;;;21.30;;
59062;SDS011;44851;45.648;9.004;2022-10-17T00:41:12;36.47;;;22.07;;
59062;SDS011;44851;45.648;9.004;2022-10-17T00:46:42;30.07;;;20.57;;
59062;SDS011;44851;45.648;9.004;2022-10-17T00:49:08;29.40;;;21.33;;
59062;SDS011;44851;45.648;9.004;2022-10-17T00:51:54;31.33;;;21.27;;
59062;SDS011;44851;45.648;9.004;2022-10-17T00:54:23;29.80;;;20.90;;
59062;SDS011;44851;45.648;9.004;2022-10-17T00:56:51;33.50;;;21.80;;
59062;SDS011;44851;45.648;9.004;2022-10-17T00:59:17;32.43;;;20.70;;
59062;SDS011;44851;45.648;9.004;2022-10-17T01:02:02;31.87;;;21.47;;
59062;SDS011;44851;45.648;9.004;2022-10-17T01:04:30;32.60;;;20.40;;
59062;SDS011;44851;45.648;9.004;2022-10-17T01:06:56;31.30;;;21.47;;
59062;SDS011;44851;45.648;9.004;2022-10-17T01:09:21;30.50;;;21.87;;
59062;SDS011;44851;45.648;9.004;2022-10-17T01:31:59;32.83;;;21.83;;
59062;SDS011;44851;45.648;9.004;2022-10-17T01:34:44;28.03;;;19.80;;
59062;SDS011;44851;45.648;9.004;2022-10-17T01:37:18;27.80;;;20.07;;
59062;SDS011;44851;45.648;9.004;2022-10-17T01:39:59;29.53;;;20.07;;
59062;SDS011;44851;45.648;9.004;2022-10-17T01:42:34;30.73;;;21.37;;
59062;SDS011;44851;45.648;9.004;2022-10-17T01:45:17;29.97;;;20.77;;
59062;SDS011;44851;45.648;9.004;2022-10-17T01:47:46;29.93;;;20.90;;
59062;SDS011;44851;45.648;9.004;2022-10-17T01:50:22;30.40;;;20.80;;
59062;SDS011;44851;45.648;9.004;2022-10-17T01:52:58;32.13;;;21.67;;
59062;SDS011;44851;45.648;9.004;2022-10-17T01:55:31;32.03;;;19.87;;
59062;SDS011;44851;45.648;9.004;2022-10-17T01:58:02;32.47;;;22.33;;
59062;SDS011;44851;45.648;9.004;2022-10-17T02:00:32;31.63;;;20.90;;
59062;SDS011;44851;45.648;9.004;2022-10-17T02:03:01;37.07;;;23.40;;
59062;SDS011;44851;45.648;9.004;2022-10-17T02:05:31;32.17;;;21.50;;
59062;SDS011;44851;45.648;9.004;2022-10-17T02:08:00;32.03;;;21.00;;
59062;SDS011;44851;45.648;9.004;2022-10-17T02:10:38;33.73;;;21.70;;
59062;SDS011;44851;45.648;9.004;2022-10-17T02:16:02;29.63;;;20.67;;
59062;SDS011;44851;45.648;9.004;2022-10-17T02:29:46;32.17;;;21.37;;
59062;SDS011;44851;45.648;9.004;2022-10-17T02:32:22;27.80;;;20.43;;
59062;SDS011;44851;45.648;9.004;2022-10-17T02:34:53;33.60;;;21.50;;
59062;SDS011;44851;45.648;9.004;2022-10-17T02:37:24;33.30;;;21.50;;
59062;SDS011;44851;45.648;9.004;2022-10-17T02:39:53;32.40;;;21.50;;
59062;SDS011;44851;45.648;9.004;2022-10-17T02:42:20;36.37;;;23.57;;
59062;SDS011;44851;45.648;9.004;2022-10-17T02:44:48;32.63;;;21.70;;
59062;SDS011;44851;45.648;9.004;2022-10-17T02:47:23;30.47;;;20.60;;
59062;SDS011;44851;45.648;9.004;2022-10-17T02:49:53;32.60;;;21.70;;
59062;SDS011;44851;45.648;9.004;2022-10-17T02:52:27;31.10;;;21.67;;
59062;SDS011;44851;45.648;9.004;2022-10-17T02:55:05;37.47;;;21.70;;
59062;SDS011;44851;45.648;9.004;2022-10-17T02:57:47;32.93;;;22.33;;
59062;SDS011;44851;45.648;9.004;2022-10-17T03:00:16;31.27;;;21.90;;
59062;SDS011;44851;45.648;9.004;2022-10-17T03:02:44;34.37;;;22.13;;
59062;SDS011;44851;45.648;9.004;2022-10-17T03:05:12;30.77;;;22.57;;
59062;SDS011;44851;45.648;9.004;2022-10-17T03:07:40;33.67;;;22.23;;
59062;SDS011;44851;45.648;9.004;2022-10-17T03:10:06;35.10;;;22.53;;
59062;SDS011;44851;45.648;9.004;2022-10-17T03:12:31;35.33;;;23.37;;
59062;SDS011;44851;45.648;9.004;2022-10-17T03:14:56;32.87;;;22.00;;
59062;SDS011;44851;45.648;9.004;2022-10-17T03:17:22;32.20;;;21.23;;
59062;SDS011;44851;45.648;9.004;2022-10-17T03:19:47;30.83;;;21.27;;
59062;SDS011;44851;45.648;9.004;2022-10-17T03:22:12;33.63;;;22.57;;
59062;SDS011;44851;45.648;9.004;2022-10-17T03:24:38;28.53;;;19.60;;
59062;SDS011;44851;45.648;9.004;2022-10-17T03:27:03;32.17;;;21.30;;
59062;SDS011;44851;45.648;9.004;2022-10-17T03:29:29;35.73;;;22.07;;
59062;SDS011;44851;45.648;9.004;2022-10-17T03:31:54;37.53;;;22.47;;
59062;SDS011;44851;45.648;9.004;2022-10-17T03:34:19;33.93;;;22.63;;
59062;SDS011;44851;45.648;9.004;2022-10-17T03:36:45;33.70;;;21.57;;
59062;SDS011;44851;45.648;9.004;2022-10-17T03:39:10;33.57;;;22.67;;
59062;SDS011;44851;45.648;9.004;2022-10-17T03:41:36;36.80;;;23.60;;
59062;SDS011;44851;45.648;9.004;2022-10-17T03:44:01;32.87;;;22.50;;
59062;SDS011;44851;45.648;9.004;2022-10-17T03:46:27;32.50;;;23.00;;
59062;SDS011;44851;45.648;9.004;2022-10-17T03:48:52;35.87;;;22.80;;
59062;SDS011;44851;45.648;9.004;2022-10-17T03:51:17;33.70;;;23.10;;
59062;SDS011;44851;45.648;9.004;2022-10-17T03:53:43;32.40;;;22.03;;
59062;SDS011;44851;45.648;9.004;2022-10-17T03:58:38;31.80;;;23.17;;
59062;SDS011;44851;45.648;9.004;2022-10-17T04:01:08;34.17;;;22.90;;
59062;SDS011;44851;45.648;9.004;2022-10-17T04:03:35;33.33;;;22.53;;
59062;SDS011;44851;45.648;9.004;2022-10-17T04:06:01;32.13;;;21.57;;
59062;SDS011;44851;45.648;9.004;2022-10-17T04:08:28;31.10;;;21.57;;
59062;SDS011;44851;45.648;9.004;2022-10-17T04:10:57;29.03;;;22.27;;
59062;SDS011;44851;45.648;9.004;2022-10-17T04:13:23;28.90;;;21.27;;
59062;SDS011;44851;45.648;9.004;2022-10-17T04:15:58;29.53;;;21.17;;
59062;SDS011;44851;45.648;9.004;2022-10-17T04:18:26;34.30;;;22.37;;
59062;SDS011;44851;45.648;9.004;2022-10-17T04:20:51;32.37;;;21.97;;
59062;SDS011;44851;45.648;9.004;2022-10-17T04:23:17;34.30;;;23.50;;
59062;SDS011;44851;45.648;9.004;2022-10-17T04:25:43;33.97;;;24.97;;
59062;SDS011;44851;45.648;9.004;2022-10-17T04:28:08;34.70;;;22.63;;
59062;SDS011;44851;45.648;9.004;2022-10-17T04:30:34;33.07;;;22.57;;
59062;SDS011;44851;45.648;9.004;2022-10-17T04:33:00;31.97;;;22.93;;
59062;SDS011;44851;45.648;9.004;2022-10-17T04:35:25;30.63;;;22.27;;
59062;SDS011;44851;45.648;9.004;2022-10-17T04:37:51;32.30;;;22.10;;
59062;SDS011;44851;45.648;9.004;2022-10-17T04:40:16;33.07;;;22.70;;
59062;SDS011;44851;45.648;9.004;2022-10-17T04:42:42;29.47;;;21.40;;
59062;SDS011;44851;45.648;9.004;2022-10-17T04:45:07;31.43;;;21.73;;
59062;SDS011;44851;45.648;9.004;2022-10-17T04:47:33;31.57;;;21.90;;
59062;SDS011;44851;45.648;9.004;2022-10-17T04:49:58;30.10;;;21.10;;
59062;SDS011;44851;45.648;9.004;2022-10-17T04:52:23;31.93;;;21.67;;
59062;SDS011;44851;45.648;9.004;2022-10-17T04:54:49;30.30;;;21.73;;
59062;SDS011;44851;45.648;9.004;2022-10-17T04:57:15;32.13;;;21.77;;
59062;SDS011;44851;45.648;9.004;2022-10-17T04:59:40;29.37;;;22.20;;
59062;SDS011;44851;45.648;9.004;2022-10-17T05:02:06;30.33;;;23.03;;
59062;SDS011;44851;45.648;9.004;2022-10-17T05:04:31;32.07;;;23.53;;
59062;SDS011;44851;45.648;9.004;2022-10-17T05:06:56;30.47;;;21.30;;
59062;SDS011;44851;45.648;9.004;2022-10-17T05:09:22;31.83;;;23.43;;
59062;SDS011;44851;45.648;9.004;2022-10-17T05:11:47;32.20;;;21.27;;
59062;SDS011;44851;45.648;9.004;2022-10-17T05:14:13;31.57;;;21.53;;
59062;SDS011;44851;45.648;9.004;2022-10-17T05:16:39;30.20;;;21.57;;
59062;SDS011;44851;45.648;9.004;2022-10-17T05:19:04;34.27;;;23.20;;
59062;SDS011;44851;45.648;9.004;2022-10-17T05:21:30;31.20;;;21.50;;
59062;SDS011;44851;45.648;9.004;2022-10-17T05:23:56;33.63;;;22.10;;
59062;SDS011;44851;45.648;9.004;2022-10-17T05:26:23;33.73;;;21.50;;
59062;SDS011;44851;45.648;9.004;2022-10-17T05:28:49;31.13;;;21.20;;
59062;SDS011;44851;45.648;9.004;2022-10-17T05:31:18;32.67;;;20.73;;
59062;SDS011;44851;45.648;9.004;2022-10-17T05:33:44;30.17;;;20.57;;
59062;SDS011;44851;45.648;9.004;2022-10-17T05:36:09;29.63;;;20.80;;
59062;SDS011;44851;45.648;9.004;2022-10-17T05:38:35;30.33;;;20.60;;
59062;SDS011;44851;45.648;9.004;2022-10-17T05:41:03;33.10;;;21.60;;
59062;SDS011;44851;45.648;9.004;2022-10-17T05:43:29;32.13;;;22.30;;
59062;SDS011;44851;45.648;9.004;2022-10-17T05:45:56;30.10;;;19.83;;
59062;SDS011;44851;45.648;9.004;2022-10-17T05:48:21;31.90;;;22.20;;
59062;SDS011;44851;45.648;9.004;2022-10-17T05:50:48;34.30;;;23.77;;
59062;SDS011;44851;45.648;9.004;2022-10-17T05:53:13;31.97;;;22.93;;
59062;SDS011;44851;45.648;9.004;2022-10-17T05:55:39;32.93;;;22.47;;
59062;SDS011;44851;45.648;9.004;2022-10-17T05:58:05;32.27;;;22.23;;
59062;SDS011;44851;45.648;9.004;2022-10-17T06:00:31;30.33;;;22.40;;
59062;SDS011;44851;45.648;9.004;2022-10-17T06:02:56;32.80;;;20.70;;
59062;SDS011;44851;45.648;9.004;2022-10-17T06:05:21;30.37;;;20.80;;
59062;SDS011;44851;45.648;9.004;2022-10-17T06:07:47;31.40;;;21.77;;
59062;SDS011;44851;45.648;9.004;2022-10-17T06:10:19;26.87;;;19.57;;
59062;SDS011;44851;45.648;9.004;2022-10-17T06:12:44;28.93;;;19.47;;
59062;SDS011;44851;45.648;9.004;2022-10-17T06:15:10;32.40;;;22.07;;
59062;SDS011;44851;45.648;9.004;2022-10-17T06:17:36;30.10;;;21.27;;
59062;SDS011;44851;45.648;9.004;2022-10-17T06:20:02;31.20;;;20.57;;
59062;SDS011;44851;45.648;9.004;2022-10-17T06:22:28;29.33;;;20.73;;
59062;SDS011;44851;45.648;9.004;2022-10-17T06:24:53;31.57;;;21.87;;
59062;SDS011;44851;45.648;9.004;2022-10-17T06:27:19;32.30;;;22.27;;
59062;SDS011;44851;45.648;9.004;2022-10-17T06:29:45;31.43;;;20.67;;
59062;SDS011;44851;45.648;9.004;2022-10-17T06:32:10;35.07;;;21.73;;
59062;SDS011;44851;45.648;9.004;2022-10-17T06:34:36;33.50;;;21.43;;
59062;SDS011;44851;45.648;9.004;2022-10-17T06:37:01;29.73;;;20.03;;
59062;SDS011;44851;45.648;9.004;2022-10-17T06:39:26;28.77;;;20.77;;
59062;SDS011;44851;45.648;9.004;2022-10-17T06:41:57;31.40;;;21.47;;
59062;SDS011;44851;45.648;9.004;2022-10-17T06:44:24;29.33;;;21.17;;
59062;SDS011;44851;45.648;9.004;2022-10-17T06:46:52;27.80;;;19.97;;
59062;SDS011;44851;45.648;9.004;2022-10-17T06:49:17;35.53;;;22.57;;
59062;SDS011;44851;45.648;9.004;2022-10-17T06:51:43;29.13;;;20.43;;
59062;SDS011;44851;45.648;9.004;2022-10-17T06:54:08;39.07;;;22.93;;
59062;SDS011;44851;45.648;9.004;2022-10-17T06:56:33;38.53;;;21.93;;
59062;SDS011;44851;45.648;9.004;2022-10-17T06:58:59;33.30;;;22.40;;
59062;SDS011;44851;45.648;9.004;2022-10-17T07:01:24;32.13;;;22.93;;
59062;SDS011;44851;45.648;9.004;2022-10-17T07:03:50;39.03;;;22.77;;
59062;SDS011;44851;45.648;9.004;2022-10-17T07:06:16;35.90;;;23.07;;
59062;SDS011;44851;45.648;9.004;2022-10-17T07:08:42;38.70;;;21.63;;
59062;SDS011;44851;45.648;9.004;2022-10-17T07:11:12;34.60;;;22.57;;
59062;SDS011;44851;45.648;9.004;2022-10-17T07:13:39;35.43;;;22.60;;
59062;SDS011;44851;45.648;9.004;2022-10-17T07:16:05;34.07;;;22.43;;
59062;SDS011;44851;45.648;9.004;2022-10-17T07:18:30;36.77;;;22.67;;
59062;SDS011;44851;45.648;9.004;2022-10-17T07:20:56;35.47;;;22.30;;
59062;SDS011;44851;45.648;9.004;2022-10-17T07:23:21;39.13;;;24.53;;
59062;SDS011;44851;45.648;9.004;2022-10-17T07:25:47;38.77;;;25.53;;
59062;SDS011;44851;45.648;9.004;2022-10-17T07:28:13;39.80;;;24.47;;
59062;SDS011;44851;45.648;9.004;2022-10-17T07:30:39;33.97;;;23.33;;
59062;SDS011;44851;45.648;9.004;2022-10-17T07:33:04;32.83;;;21.97;;
59062;SDS011;44851;45.648;9.004;2022-10-17T07:35:29;31.10;;;20.90;;
59062;SDS011;44851;45.648;9.004;2022-10-17T07:37:55;31.27;;;22.17;;
59062;SDS011;44851;45.648;9.004;2022-10-17T07:40:20;30.80;;;21.03;;
59062;SDS011;44851;45.648;9.004;2022-10-17T07:42:45;31.93;;;22.10;;
59062;SDS011;44851;45.648;9.004;2022-10-17T07:45:11;30.83;;;21.33;;
59062;SDS011;44851;45.648;9.004;2022-10-17T07:47:36;31.73;;;20.73;;
59062;SDS011;44851;45.648;9.004;2022-10-17T07:50:03;31.37;;;22.47;;
59062;SDS011;44851;45.648;9.004;2022-10-17T07:52:29;32.27;;;21.67;;
59062;SDS011;44851;45.648;9.004;2022-10-17T07:54:55;33.77;;;22.30;;
59062;SDS011;44851;45.648;9.004;2022-10-17T07:57:20;36.67;;;22.13;;
59062;SDS011;44851;45.648;9.004;2022-10-17T07:59:45;31.23;;;22.27;;
59062;SDS011;44851;45.648;9.004;2022-10-17T08:02:22;29.43;;;20.83;;
59062;SDS011;44851;45.648;9.004;2022-10-17T08:04:49;34.57;;;22.13;;
59062;SDS011;44851;45.648;9.004;2022-10-17T08:07:14;30.87;;;21.87;;
59062;SDS011;44851;45.648;9.004;2022-10-17T08:09:40;31.90;;;21.00;;
59062;SDS011;44851;45.648;9.004;2022-10-17T08:12:06;31.53;;;22.10;;
59062;SDS011;44851;45.648;9.004;2022-10-17T08:14:31;32.10;;;22.50;;
59062;SDS011;44851;45.648;9.004;2022-10-17T08:16:57;32.90;;;23.80;;
59062;SDS011;44851;45.648;9.004;2022-10-17T08:19:22;39.43;;;23.53;;
59062;SDS011;44851;45.648;9.004;2022-10-17T08:21:48;34.33;;;23.73;;
59062;SDS011;44851;45.648;9.004;2022-10-17T08:24:14;36.67;;;23.83;;
59062;SDS011;44851;45.648;9.004;2022-10-17T08:26:39;37.00;;;24.90;;
59062;SDS011;44851;45.648;9.004;2022-10-17T08:29:05;34.47;;;22.90;;
59062;SDS011;44851;45.648;9.004;2022-10-17T08:31:31;37.73;;;26.83;;
59062;SDS011;44851;45.648;9.004;2022-10-17T08:33:56;41.20;;;25.40;;
59062;SDS011;44851;45.648;9.004;2022-10-17T08:36:21;43.60;;;27.80;;
59062;SDS011;44851;45.648;9.004;2022-10-17T08:38:47;44.87;;;28.23;;
59062;SDS011;44851;45.648;9.004;2022-10-17T08:41:14;45.50;;;27.67;;
59062;SDS011;44851;45.648;9.004;2022-10-17T08:43:56;39.83;;;27.07;;
59062;SDS011;44851;45.648;9.004;2022-10-17T08:46:34;42.17;;;26.03;;
59062;SDS011;44851;45.648;9.004;2022-10-17T08:49:03;48.87;;;27.87;;
59062;SDS011;44851;45.648;9.004;2022-10-17T08:51:36;45.77;;;26.77;;
59062;SDS011;44851;45.648;9.004;2022-10-17T08:56:47;42.83;;;27.83;;
59062;SDS011;44851;45.648;9.004;2022-10-17T08:59:19;41.77;;;27.97;;
59062;SDS011;44851;45.648;9.004;2022-10-17T09:02:02;46.27;;;28.40;;
59062;SDS011;44851;45.648;9.004;2022-10-17T09:18:53;44.23;;;29.03;;
59062;SDS011;44851;45.648;9.004;2022-10-17T09:24:47;45.13;;;30.17;;
59062;SDS011;44851;45.648;9.004;2022-10-17T09:30:05;44.47;;;27.77;;
59062;SDS011;44851;45.648;9.004;2022-10-17T09:32:36;45.93;;;29.67;;
59062;SDS011;44851;45.648;9.004;2022-10-17T09:35:02;45.53;;;29.93;;
59062;SDS011;44851;45.648;9.004;2022-10-17T09:37:29;46.23;;;30.67;;
59062;SDS011;44851;45.648;9.004;2022-10-17T09:39:56;45.33;;;29.83;;
59062;SDS011;44851;45.648;9.004;2022-10-17T09:42:22;42.37;;;29.97;;
59062;SDS011;44851;45.648;9.004;2022-10-17T09:44:56;39.23;;;27.57;;
59062;SDS011;44851;45.648;9.004;2022-10-17T09:50:24;44.27;;;29.27;;
59062;SDS011;44851;45.648;9.004;2022-10-17T09:52:55;43.53;;;29.90;;
59062;SDS011;44851;45.648;9.004;2022-10-17T09:57:59;44.93;;;29.67;;
59062;SDS011;44851;45.648;9.004;2022-10-17T10:00:30;44.80;;;29.67;;
59062;SDS011;44851;45.648;9.004;2022-10-17T10:08:53;44.47;;;30.03;;
59062;SDS011;44851;45.648;9.004;2022-10-17T10:14:21;49.70;;;30.87;;
59062;SDS011;44851;45.648;9.004;2022-10-17T10:16:48;43.97;;;30.40;;
59062;SDS011;44851;45.648;9.004;2022-10-17T10:19:18;51.87;;;31.80;;
59062;SDS011;44851;45.648;9.004;2022-10-17T10:21:54;48.27;;;30.47;;
59062;SDS011;44851;45.648;9.004;2022-10-17T10:24:24;47.43;;;30.67;;
59062;SDS011;44851;45.648;9.004;2022-10-17T10:26:51;45.03;;;32.37;;
59062;SDS011;44851;45.648;9.004;2022-10-17T10:31:55;61.83;;;42.37;;
59062;SDS011;44851;45.648;9.004;2022-10-17T10:34:26;51.27;;;33.83;;
59062;SDS011;44851;45.648;9.004;2022-10-17T10:36:55;75.80;;;51.10;;
59062;SDS011;44851;45.648;9.004;2022-10-17T10:39:26;50.83;;;35.10;;
59062;SDS011;44851;45.648;9.004;2022-10-17T10:42:01;49.67;;;34.27;;
59062;SDS011;44851;45.648;9.004;2022-10-17T10:44:30;50.97;;;33.37;;
59062;SDS011;44851;45.648;9.004;2022-10-17T10:52:56;49.90;;;32.57;;
59062;SDS011;44851;45.648;9.004;2022-10-17T10:55:49;55.10;;;33.60;;
59062;SDS011;44851;45.648;9.004;2022-10-17T10:58:22;53.93;;;35.20;;
59062;SDS011;44851;45.648;9.004;2022-10-17T11:00:54;53.90;;;36.10;;
59062;SDS011;44851;45.648;9.004;2022-10-17T11:03:25;51.57;;;33.90;;
59062;SDS011;44851;45.648;9.004;2022-10-17T11:06:15;57.90;;;35.37;;
59062;SDS011;44851;45.648;9.004;2022-10-17T11:08:51;53.60;;;34.70;;
59062;SDS011;44851;45.648;9.004;2022-10-17T11:11:33;49.20;;;32.90;;
59062;SDS011;44851;45.648;9.004;2022-10-17T11:14:12;52.17;;;32.60;;
59062;SDS011;44851;45.648;9.004;2022-10-17T11:16:52;52.73;;;34.90;;
59062;SDS011;44851;45.648;9.004;2022-10-17T11:19:34;53.23;;;34.20;;
59062;SDS011;44851;45.648;9.004;2022-10-17T11:22:11;53.00;;;33.73;;
59062;SDS011;44851;45.648;9.004;2022-10-17T11:24:51;50.33;;;34.47;;
59062;SDS011;44851;45.648;9.004;2022-10-17T11:27:21;55.83;;;36.03;;
59062;SDS011;44851;45.648;9.004;2022-10-17T11:29:52;51.77;;;32.10;;
59062;SDS011;44851;45.648;9.004;2022-10-17T11:32:25;52.27;;;32.93;;
59062;SDS011;44851;45.648;9.004;2022-10-17T11:35:03;48.90;;;32.47;;
59062;SDS011;44851;45.648;9.004;2022-10-17T11:37:38;49.53;;;33.07;;
59062;SDS011;44851;45.648;9.004;2022-10-17T11:40:15;57.47;;;35.30;;
59062;SDS011;44851;45.648;9.004;2022-10-17T11:45:17;51.13;;;33.27;;
59062;SDS011;44851;45.648;9.004;2022-10-17T11:47:48;53.80;;;34.63;;
59062;SDS011;44851;45.648;9.004;2022-10-17T11:50:22;56.70;;;34.20;;
59062;SDS011;44851;45.648;9.004;2022-10-17T11:53:13;55.40;;;34.70;;
59062;SDS011;44851;45.648;9.004;2022-10-17T11:55:41;55.47;;;35.07;;
59062;SDS011;44851;45.648;9.004;2022-10-17T12:01:06;56.23;;;33.60;;
59062;SDS011;44851;45.648;9.004;2022-10-17T12:11:59;49.57;;;32.53;;
59062;SDS011;44851;45.648;9.004;2022-10-17T12:16:57;53.63;;;34.47;;
59062;SDS011;44851;45.648;9.004;2022-10-17T12:19:24;48.47;;;34.43;;
59062;SDS011;44851;45.648;9.004;2022-10-17T12:21:56;50.33;;;32.63;;
59062;SDS011;44851;45.648;9.004;2022-10-17T12:27:19;50.40;;;31.70;;
59062;SDS011;44851;45.648;9.004;2022-10-17T12:32:36;51.50;;;34.27;;
59062;SDS011;44851;45.648;9.004;2022-10-17T12:35:02;56.77;;;34.50;;
59062;SDS011;44851;45.648;9.004;2022-10-17T12:37:58;53.97;;;35.00;;
59062;SDS011;44851;45.648;9.004;2022-10-17T12:45:50;52.37;;;34.00;;
59062;SDS011;44851;45.648;9.004;2022-10-17T12:51:09;49.87;;;32.03;;
59062;SDS011;44851;45.648;9.004;2022-10-17T12:53:53;54.33;;;34.53;;
59062;SDS011;44851;45.648;9.004;2022-10-17T12:59:08;47.23;;;32.33;;
59062;SDS011;44851;45.648;9.004;2022-10-17T13:01:42;45.50;;;31.27;;
59062;SDS011;44851;45.648;9.004;2022-10-17T13:04:10;51.17;;;32.80;;
59062;SDS011;44851;45.648;9.004;2022-10-17T13:06:38;48.43;;;31.43;;
59062;SDS011;44851;45.648;9.004;2022-10-17T13:09:51;46.00;;;29.60;;
59062;SDS011;44851;45.648;9.004;2022-10-17T13:12:02;49.57;;;32.57;;
59062;SDS011;44851;45.648;9.004;2022-10-17T13:14:30;49.13;;;32.97;;
59062;SDS011;44851;45.648;9.004;2022-10-17T13:16:58;50.60;;;31.67;;
59062;SDS011;44851;45.648;9.004;2022-10-17T13:19:29;46.17;;;29.93;;
59062;SDS011;44851;45.648;9.004;2022-10-17T13:22:10;42.83;;;29.73;;
59062;SDS011;44851;45.648;9.004;2022-10-17T13:24:40;46.63;;;30.07;;
59062;SDS011;44851;45.648;9.004;2022-10-17T13:27:19;46.90;;;31.53;;
59062;SDS011;44851;45.648;9.004;2022-10-17T13:29:48;47.33;;;30.83;;
59062;SDS011;44851;45.648;9.004;2022-10-17T13:32:13;41.37;;;30.20;;
59062;SDS011;44851;45.648;9.004;2022-10-17T13:34:39;44.97;;;29.53;;
59062;SDS011;44851;45.648;9.004;2022-10-17T13:37:06;44.77;;;29.83;;
59062;SDS011;44851;45.648;9.004;2022-10-17T13:39:40;46.70;;;30.57;;
59062;SDS011;44851;45.648;9.004;2022-10-17T13:42:20;43.60;;;29.20;;
59062;SDS011;44851;45.648;9.004;2022-10-17T13:44:48;42.93;;;30.07;;
59062;SDS011;44851;45.648;9.004;2022-10-17T13:47:21;49.93;;;32.47;;
59062;SDS011;44851;45.648;9.004;2022-10-17T13:49:48;51.47;;;32.13;;
59062;SDS011;44851;45.648;9.004;2022-10-17T13:52:16;46.90;;;29.40;;
59062;SDS011;44851;45.648;9.004;2022-10-17T13:54:44;49.07;;;32.03;;
59062;SDS011;44851;45.648;9.004;2022-10-17T13:57:29;40.60;;;29.00;;
59062;SDS011;44851;45.648;9.004;2022-10-17T14:02:50;42.73;;;26.83;;
59062;SDS011;44851;45.648;9.004;2022-10-17T14:05:18;38.20;;;26.60;;
59062;SDS011;44851;45.648;9.004;2022-10-17T14:07:55;45.77;;;30.63;;
59062;SDS011;44851;45.648;9.004;2022-10-17T14:10:24;47.60;;;30.10;;
59062;SDS011;44851;45.648;9.004;2022-10-17T14:12:51;45.43;;;30.20;;
59062;SDS011;44851;45.648;9.004;2022-10-17T14:15:18;42.40;;;28.30;;
59062;SDS011;44851;45.648;9.004;2022-10-17T14:17:52;35.43;;;25.43;;
59062;SDS011;44851;45.648;9.004;2022-10-17T14:20:21;40.23;;;27.57;;
59062;SDS011;44851;45.648;9.004;2022-10-17T14:22:47;36.37;;;26.07;;
59062;SDS011;44851;45.648;9.004;2022-10-17T14:30:45;41.70;;;25.60;;
59062;SDS011;44851;45.648;9.004;2022-10-17T14:33:30;43.07;;;27.13;;
59062;SDS011;44851;45.648;9.004;2022-10-17T14:35:56;39.97;;;26.70;;
59062;SDS011;44851;45.648;9.004;2022-10-17T14:38:47;41.93;;;27.47;;
59062;SDS011;44851;45.648;9.004;2022-10-17T14:43:54;39.20;;;26.37;;
59062;SDS011;44851;45.648;9.004;2022-10-17T14:46:21;41.00;;;27.10;;
59062;SDS011;44851;45.648;9.004;2022-10-17T14:48:50;34.80;;;25.03;;
59062;SDS011;44851;45.648;9.004;2022-10-17T14:51:18;39.80;;;26.13;;
59062;SDS011;44851;45.648;9.004;2022-10-17T14:53:44;40.67;;;25.60;;
59062;SDS011;44851;45.648;9.004;2022-10-17T14:56:37;37.07;;;24.17;;
59062;SDS011;44851;45.648;9.004;2022-10-17T14:59:04;36.03;;;24.77;;
59062;SDS011;44851;45.648;9.004;2022-10-17T15:01:31;36.97;;;25.23;;
59062;SDS011;44851;45.648;9.004;2022-10-17T15:03:57;38.73;;;25.70;;
59062;SDS011;44851;45.648;9.004;2022-10-17T15:06:25;41.10;;;27.87;;
59062;SDS011;44851;45.648;9.004;2022-10-17T15:08:53;39.67;;;25.47;;
59062;SDS011;44851;45.648;9.004;2022-10-17T15:11:18;37.37;;;25.77;;
59062;SDS011;44851;45.648;9.004;2022-10-17T15:13:43;39.87;;;26.47;;
59062;SDS011;44851;45.648;9.004;2022-10-17T15:16:19;38.30;;;25.10;;
59062;SDS011;44851;45.648;9.004;2022-10-17T15:18:49;33.43;;;23.53;;
59062;SDS011;44851;45.648;9.004;2022-10-17T15:21:16;35.37;;;25.07;;
59062;SDS011;44851;45.648;9.004;2022-10-17T15:23:43;42.97;;;24.37;;
59062;SDS011;44851;45.648;9.004;2022-10-17T15:28:45;36.23;;;22.77;;
59062;SDS011;44851;45.648;9.004;2022-10-17T15:31:12;37.13;;;22.27;;
59062;SDS011;44851;45.648;9.004;2022-10-17T15:33:39;35.07;;;24.13;;
59062;SDS011;44851;45.648;9.004;2022-10-17T15:36:15;37.47;;;24.47;;
59062;SDS011;44851;45.648;9.004;2022-10-17T15:38:43;33.70;;;21.63;;
59062;SDS011;44851;45.648;9.004;2022-10-17T15:41:09;31.20;;;21.87;;
59062;SDS011;44851;45.648;9.004;2022-10-17T15:43:35;31.53;;;22.37;;
59062;SDS011;44851;45.648;9.004;2022-10-17T15:46:00;33.40;;;21.27;;
59062;SDS011;44851;45.648;9.004;2022-10-17T15:48:27;32.10;;;21.03;;
59062;SDS011;44851;45.648;9.004;2022-10-17T15:50:54;29.80;;;20.57;;
59062;SDS011;44851;45.648;9.004;2022-10-17T15:53:20;33.23;;;21.57;;
59062;SDS011;44851;45.648;9.004;2022-10-17T15:55:46;27.97;;;21.33;;
59062;SDS011;44851;45.648;9.004;2022-10-17T15:58:14;32.80;;;22.17;;
59062;SDS011;44851;45.648;9.004;2022-10-17T16:00:42;32.50;;;22.70;;
59062;SDS011;44851;45.648;9.004;2022-10-17T16:03:09;37.60;;;21.90;;
59062;SDS011;44851;45.648;9.004;2022-10-17T16:05:34;29.47;;;19.33;;
59062;SDS011;44851;45.648;9.004;2022-10-17T16:08:00;31.30;;;20.77;;
59062;SDS011;44851;45.648;9.004;2022-10-17T16:10:25;32.90;;;21.37;;
59062;SDS011;44851;45.648;9.004;2022-10-17T16:12:52;33.87;;;23.87;;
59062;SDS011;44851;45.648;9.004;2022-10-17T16:15:19;35.93;;;23.10;;
59062;SDS011;44851;45.648;9.004;2022-10-17T16:17:49;33.60;;;23.10;;
59062;SDS011;44851;45.648;9.004;2022-10-17T16:20:16;38.50;;;23.63;;
59062;SDS011;44851;45.648;9.004;2022-10-17T16:22:43;30.47;;;20.73;;
59062;SDS011;44851;45.648;9.004;2022-10-17T16:25:15;32.20;;;21.43;;
59062;SDS011;44851;45.648;9.004;2022-10-17T16:27:44;31.47;;;21.23;;
59062;SDS011;44851;45.648;9.004;2022-10-17T16:30:11;34.13;;;21.17;;
59062;SDS011;44851;45.648;9.004;2022-10-17T16:32:37;37.23;;;23.30;;
59062;SDS011;44851;45.648;9.004;2022-10-17T16:35:02;32.67;;;20.03;;
59062;SDS011;44851;45.648;9.004;2022-10-17T16:37:28;31.10;;;20.80;;
59062;SDS011;44851;45.648;9.004;2022-10-17T16:39:53;31.27;;;22.03;;
59062;SDS011;44851;45.648;9.004;2022-10-17T16:42:19;30.33;;;21.27;;
59062;SDS011;44851;45.648;9.004;2022-10-17T16:44:45;34.17;;;22.20;;